Buoy 41609

sailwx.info

Track history (hours):
 
Tides and Currents Weather Stations Pressure Air Temp Water Temp Dewpoint Dewpoint Depression Visibility Wind Speed Wind Dir Waves Ship Positions

Drifting buoy 41609

Last reported at 2015-Jul-31 19:00 UTC. Time now 2015-Jul-31 23:27 UTC.
Position N 48°17' W 039°10'.

Date/timePositionNaut miles runAvg speedWind from/ knotsBaromVisibWave heightAir tempDewpointWater temp
2015-Jul-31 19:00N 48°17' W 039°10'4 4.4
2015-Jul-31 18:00N 48°15' W 039°15'0 0.0
2015-Jul-31 16:00N 48°15' W 039°15'13 1.6
2015-Jul-31 08:00N 48°05' W 039°27'2 2.1
2015-Jul-31 07:00N 48°03' W 039°29'16 1.3
2015-Jul-30 18:00N 47°47' W 039°37'2 1.9
2015-Jul-30 17:00N 47°45' W 039°37'8 1.5
2015-Jul-30 12:00N 47°38' W 039°37'0 0.0
2015-Jul-30 11:00N 47°38' W 039°37'0 0.0
2015-Jul-30 09:00N 47°38' W 039°37'11 0.8
2015-Jul-29 20:00N 47°27' W 039°34'0 0.0
2015-Jul-29 19:00N 47°27' W 039°34'3 0.5
2015-Jul-29 14:00N 47°25' W 039°33'7 0.9
2015-Jul-29 07:00N 47°19' W 039°28'0 0.0
2015-Jul-29 05:00N 47°19' W 039°28'10 0.7
2015-Jul-28 15:00N 47°12' W 039°17'2 0.7
2015-Jul-28 12:00N 47°11' W 039°15'1 1.3
2015-Jul-28 11:00N 47°10' W 039°14'3 1.3
2015-Jul-28 09:00N 47°09' W 039°10'0 0.0
2015-Jul-28 08:00N 47°09' W 039°10'1 0.8
2015-Jul-28 07:00N 47°09' W 039°09'6 0.7
2015-Jul-27 23:00N 47°08' W 039°01'3 1.1
2015-Jul-27 20:00N 47°06' W 038°57'3 1.0
2015-Jul-27 17:00N 47°06' W 038°52'7 1.2
2015-Jul-27 11:00N 47°08' W 038°42'11 1.0
2015-Jul-27 00:00N 47°10' W 038°27'3 2.6
2015-Jul-26 23:00N 47°11' W 038°23'0 0.0
2015-Jul-26 22:00N 47°11' W 038°23'2 2.0
2015-Jul-26 21:00N 47°12' W 038°21'1 1.3
2015-Jul-26 20:00N 47°13' W 038°19'0 0.0
2015-Jul-26 19:00N 47°13' W 038°19'2 2.0
2015-Jul-26 18:00N 47°14' W 038°17'3 2.8
2015-Jul-26 17:00N 47°15' W 038°13'0 0.0
2015-Jul-26 15:00N 47°15' W 038°13'4 1.9
2015-Jul-26 13:00N 47°16' W 038°08'1 1.3
2015-Jul-26 12:00N 47°17' W 038°06'1 1.5
2015-Jul-26 11:00N 47°18' W 038°04'1 1.4
2015-Jul-26 10:00N 47°18' W 038°02'2 1.7
2015-Jul-26 09:00N 47°19' W 038°00'1 1.0
2015-Jul-26 08:00N 47°20' W 037°59'2 1.6
2015-Jul-26 07:00N 47°21' W 037°57'2 1.8
2015-Jul-26 06:00N 47°22' W 037°56'6 3.0
2015-Jul-26 04:00N 47°27' W 037°50'15 0.8
2015-Jul-25 10:00N 47°41' W 037°44'3 1.4
2015-Jul-25 08:00N 47°44' W 037°46'2 2.1
2015-Jul-25 07:00N 47°45' W 037°47'0 0.0
2015-Jul-25 06:00N 47°45' W 037°47'2 1.0
2015-Jul-25 04:00N 47°47' W 037°50'10 1.3
2015-Jul-24 20:00N 47°54' W 037°60'8 1.5
2015-Jul-24 15:00N 47°58' W 038°10'26 1.3
2015-Jul-23 19:00N 48°01' W 038°49'8 2.7
2015-Jul-23 16:00N 47°57' W 038°59'2 0.6
2015-Jul-23 13:00N 47°55' W 039°01'1 1.5
2015-Jul-23 12:00N 47°55' W 039°03'0 0.0
2015-Jul-23 11:00N 47°55' W 039°03'20 1.7
2015-Jul-22 23:00N 47°37' W 039°19'7 1.4
2015-Jul-22 18:00N 47°30' W 039°20'2 2.2
2015-Jul-22 17:00N 47°28' W 039°20'22 1.1
2015-Jul-21 20:00N 47°17' W 038°52'0 0.0
2015-Jul-21 19:00N 47°17' W 038°52'  
Track history (hours):
 
Tides and Currents Weather Stations Pressure Air Temp Water Temp Dewpoint Dewpoint Depression Visibility Wind Speed Wind Dir Waves Ship Positions

Drifting buoy 41609

Last reported at 2015-Jul-31 19:00 UTC. Time now 2015-Jul-31 23:27 UTC.
Position N 48°17' W 039°10'.

Date/timePositionNaut miles runAvg speedWind from/ knotsBaromVisibWave heightAir tempDewpointWater temp
2015-Jul-31 19:00N 48°17' W 039°10'4 4.4
2015-Jul-31 18:00N 48°15' W 039°15'0 0.0
2015-Jul-31 16:00N 48°15' W 039°15'13 1.6
2015-Jul-31 08:00N 48°05' W 039°27'2 2.1
2015-Jul-31 07:00N 48°03' W 039°29'16 1.3
2015-Jul-30 18:00N 47°47' W 039°37'2 1.9
2015-Jul-30 17:00N 47°45' W 039°37'8 1.5
2015-Jul-30 12:00N 47°38' W 039°37'0 0.0
2015-Jul-30 11:00N 47°38' W 039°37'0 0.0
2015-Jul-30 09:00N 47°38' W 039°37'11 0.8
2015-Jul-29 20:00N 47°27' W 039°34'0 0.0
2015-Jul-29 19:00N 47°27' W 039°34'3 0.5
2015-Jul-29 14:00N 47°25' W 039°33'7 0.9
2015-Jul-29 07:00N 47°19' W 039°28'0 0.0
2015-Jul-29 05:00N 47°19' W 039°28'10 0.7
2015-Jul-28 15:00N 47°12' W 039°17'2 0.7
2015-Jul-28 12:00N 47°11' W 039°15'1 1.3
2015-Jul-28 11:00N 47°10' W 039°14'3 1.3
2015-Jul-28 09:00N 47°09' W 039°10'0 0.0
2015-Jul-28 08:00N 47°09' W 039°10'1 0.8
2015-Jul-28 07:00N 47°09' W 039°09'6 0.7
2015-Jul-27 23:00N 47°08' W 039°01'3 1.1
2015-Jul-27 20:00N 47°06' W 038°57'3 1.0
2015-Jul-27 17:00N 47°06' W 038°52'7 1.2
2015-Jul-27 11:00N 47°08' W 038°42'11 1.0
2015-Jul-27 00:00N 47°10' W 038°27'3 2.6
2015-Jul-26 23:00N 47°11' W 038°23'0 0.0
2015-Jul-26 22:00N 47°11' W 038°23'2 2.0
2015-Jul-26 21:00N 47°12' W 038°21'1 1.3
2015-Jul-26 20:00N 47°13' W 038°19'0 0.0
2015-Jul-26 19:00N 47°13' W 038°19'2 2.0
2015-Jul-26 18:00N 47°14' W 038°17'3 2.8
2015-Jul-26 17:00N 47°15' W 038°13'0 0.0
2015-Jul-26 15:00N 47°15' W 038°13'4 1.9
2015-Jul-26 13:00N 47°16' W 038°08'1 1.3
2015-Jul-26 12:00N 47°17' W 038°06'1 1.5
2015-Jul-26 11:00N 47°18' W 038°04'1 1.4
2015-Jul-26 10:00N 47°18' W 038°02'2 1.7
2015-Jul-26 09:00N 47°19' W 038°00'1 1.0
2015-Jul-26 08:00N 47°20' W 037°59'2 1.6
2015-Jul-26 07:00N 47°21' W 037°57'2 1.8
2015-Jul-26 06:00N 47°22' W 037°56'6 3.0
2015-Jul-26 04:00N 47°27' W 037°50'15 0.8
2015-Jul-25 10:00N 47°41' W 037°44'3 1.4
2015-Jul-25 08:00N 47°44' W 037°46'2 2.1
2015-Jul-25 07:00N 47°45' W 037°47'0 0.0
2015-Jul-25 06:00N 47°45' W 037°47'2 1.0
2015-Jul-25 04:00N 47°47' W 037°50'10 1.3
2015-Jul-24 20:00N 47°54' W 037°60'8 1.5
2015-Jul-24 15:00N 47°58' W 038°10'26 1.3
2015-Jul-23 19:00N 48°01' W 038°49'8 2.7
2015-Jul-23 16:00N 47°57' W 038°59'2 0.6
2015-Jul-23 13:00N 47°55' W 039°01'1 1.5
2015-Jul-23 12:00N 47°55' W 039°03'0 0.0
2015-Jul-23 11:00N 47°55' W 039°03'20 1.7
2015-Jul-22 23:00N 47°37' W 039°19'7 1.4
2015-Jul-22 18:00N 47°30' W 039°20'2 2.2
2015-Jul-22 17:00N 47°28' W 039°20'22 1.1
2015-Jul-21 20:00N 47°17' W 038°52'0 0.0
2015-Jul-21 19:00N 47°17' W 038°52'  

Dump ship's entire track history